Shannon, GA

6:14 PM EDT on August 30, 2014 (GMT -0400)
Russell | Change Station
CLOSE
Current Station
Airport
Location: Rome,
Elevation: 643 ft
Nearby Weather Stations

Elev 643 ft 34.35 °N, 85.16 °W | Updated 21 minutes ago

Overcast
Overcast
89 °F
Feels Like 94 °F
N
8
Wind Variable Wind from SSE

Today
High -- | Low -- °F
--% Chance of Precip.
Yesterday
High -- | Low -- °F
Precip. -- in
7:12 AM 8:09 PM
Waxing Crescent, 25% visible
Pressure 29.99 in
Visibility 10.0 miles
Clouds Mostly Cloudy 5500 ft
Overcast 9000 ft
Heat Index 94 °F
Dew Point 69 °F
Humidity 52%
Rainfall 0.00 in
Snow Depth Not available.
UV 1 out of 12
Pollen 8.90 out of 12
Air Quality Not available.
Flu Activity Not available.
METAR KRMG 302153Z AUTO 16007KT 10SM BKN055 OVC090 32/21 A3002 RMK AO2 LTG DSNT S-W SLP156 T03170206

More Conditions Fewer Conditions

Pressure 29.99 in
Visibility 10.0 miles
Clouds Mostly Cloudy 5500 ft
Overcast 9000 ft
Heat Index 94 °F
Dew Point 69 °F
Humidity 52%
Rainfall 0.00 in
Snow Depth Not available.
UV 1 out of 12
Pollen 8.90 out of 12
Air Quality Not available.
Flu Activity Not available.
METAR KRMG 302153Z AUTO 16007KT 10SM BKN055 OVC090 32/21 A3002 RMK AO2 LTG DSNT S-W SLP156 T03170206

More Conditions Fewer Conditions

10-Day Weather Forecast

Almanac

Astronomy

Aug. 30, 2014 Rise Set
Actual Time 7:12 AM EDT 8:09 PM EDT
Civil Twilight 6:46 AM EDT 8:35 PM EDT
Nautical Twilight 6:16 AM EDT 9:05 PM EDT
Astronomical Twilight 5:44 AM EDT 9:36 PM EDT
Moon 11:45 AM EDT 10:57 PM EDT
Length of Visible Light 13h 48m
Length of Day
12h 56m
Tomorrow will be 2m 3s shorter.
Waxing Crescent, 25% of the Moon is Illuminated
Today
Waxing Crescent
Sep 2
First Quarter
Sep 8
Full
Sep 15
Last Quarter
Sep 24
New

Today's Extremes

State Highs State Lows

Community

WunderPhotos

Upload Photos

1,748,657 photos uploaded!

WunderBlogs® & News

Nearby

Snow Depth

Station Depth Elevation
No new snow has been reported.

Earthquake Activity

City Distance Mag. Time & Date
No recent earthquake activity has been reported nearby.
Minimum magnitude displayed is 2.5.

Coastal Water Temperatures

Place Temperature
No Stations Reporting

Nearby Weather Stations